sensor_id;sensor_type;location;lat;lon;timestamp;pressure;altitude;pressure_sealevel;temperature;humidity
70745;BME280;59284;31.390;34.904;2022-12-07T00:01:32;95357.69;;;13.63;100.00
70745;BME280;59284;31.390;34.904;2022-12-07T00:04:02;95358.75;;;13.62;100.00
70745;BME280;59284;31.390;34.904;2022-12-07T00:06:35;95355.09;;;13.63;100.00
70745;BME280;59284;31.390;34.904;2022-12-07T00:09:04;95355.09;;;13.63;100.00
70745;BME280;59284;31.390;34.904;2022-12-07T00:11:32;95361.28;;;13.53;100.00
70745;BME280;59284;31.390;34.904;2022-12-07T00:14:01;95362.81;;;13.54;100.00
70745;BME280;59284;31.390;34.904;2022-12-07T00:16:31;95354.31;;;13.62;100.00
70745;BME280;59284;31.390;34.904;2022-12-07T00:18:58;95350.84;;;13.53;100.00
70745;BME280;59284;31.390;34.904;2022-12-07T00:21:30;95352.78;;;13.48;100.00
70745;BME280;59284;31.390;34.904;2022-12-07T00:23:57;95360.59;;;13.48;100.00
70745;BME280;59284;31.390;34.904;2022-12-07T00:26:29;95356.72;;;13.59;100.00
70745;BME280;59284;31.390;34.904;2022-12-07T00:28:59;95357.91;;;13.53;100.00
70745;BME280;59284;31.390;34.904;2022-12-07T00:31:34;95361.06;;;13.50;100.00
70745;BME280;59284;31.390;34.904;2022-12-07T00:34:06;95366.50;;;13.40;100.00
70745;BME280;59284;31.390;34.904;2022-12-07T00:36:34;95365.25;;;13.37;100.00
70745;BME280;59284;31.390;34.904;2022-12-07T00:39:02;95363.78;;;13.31;100.00
70745;BME280;59284;31.390;34.904;2022-12-07T00:41:30;95364.88;;;13.16;100.00
70745;BME280;59284;31.390;34.904;2022-12-07T00:43:57;95362.84;;;13.13;100.00
70745;BME280;59284;31.390;34.904;2022-12-07T00:46:25;95361.91;;;13.09;100.00
70745;BME280;59284;31.390;34.904;2022-12-07T00:48:53;95354.34;;;13.08;100.00
70745;BME280;59284;31.390;34.904;2022-12-07T00:51:24;95348.72;;;13.01;100.00
70745;BME280;59284;31.390;34.904;2022-12-07T00:53:52;95356.44;;;12.92;100.00
70745;BME280;59284;31.390;34.904;2022-12-07T00:56:29;95346.53;;;13.08;100.00
70745;BME280;59284;31.390;34.904;2022-12-07T00:58:59;95340.91;;;12.87;100.00
70745;BME280;59284;31.390;34.904;2022-12-07T01:01:30;95342.38;;;12.80;100.00
70745;BME280;59284;31.390;34.904;2022-12-07T01:03:57;95330.22;;;12.75;100.00
70745;BME280;59284;31.390;34.904;2022-12-07T01:06:26;95326.53;;;12.76;100.00
70745;BME280;59284;31.390;34.904;2022-12-07T01:08:54;95336.78;;;12.73;100.00
70745;BME280;59284;31.390;34.904;2022-12-07T01:11:25;95323.38;;;12.79;100.00
70745;BME280;59284;31.390;34.904;2022-12-07T01:13:54;95324.41;;;12.78;100.00
70745;BME280;59284;31.390;34.904;2022-12-07T01:16:24;95331.09;;;12.71;100.00
70745;BME280;59284;31.390;34.904;2022-12-07T01:18:54;95318.81;;;12.71;100.00
70745;BME280;59284;31.390;34.904;2022-12-07T01:21:28;95314.13;;;12.73;100.00
70745;BME280;59284;31.390;34.904;2022-12-07T01:23:59;95294.50;;;12.62;100.00
70745;BME280;59284;31.390;34.904;2022-12-07T01:26:27;95291.44;;;12.60;100.00
70745;BME280;59284;31.390;34.904;2022-12-07T01:28:55;95299.72;;;12.48;100.00
70745;BME280;59284;31.390;34.904;2022-12-07T01:31:25;95307.81;;;12.60;100.00
70745;BME280;59284;31.390;34.904;2022-12-07T01:33:57;95300.31;;;12.59;100.00
70745;BME280;59284;31.390;34.904;2022-12-07T01:36:26;95305.13;;;12.52;100.00
70745;BME280;59284;31.390;34.904;2022-12-07T01:38:58;95310.44;;;12.60;100.00
70745;BME280;59284;31.390;34.904;2022-12-07T01:41:29;95303.19;;;12.57;100.00
70745;BME280;59284;31.390;34.904;2022-12-07T01:44:20;95305.13;;;12.52;100.00
70745;BME280;59284;31.390;34.904;2022-12-07T01:46:56;95303.78;;;12.68;100.00
70745;BME280;59284;31.390;34.904;2022-12-07T01:49:42;95310.81;;;12.67;100.00
70745;BME280;59284;31.390;34.904;2022-12-07T01:52:20;95319.59;;;12.58;100.00
70745;BME280;59284;31.390;34.904;2022-12-07T01:54:53;95320.34;;;12.45;100.00
70745;BME280;59284;31.390;34.904;2022-12-07T01:57:22;95315.22;;;12.40;100.00
70745;BME280;59284;31.390;34.904;2022-12-07T01:59:56;95323.31;;;12.38;100.00
70745;BME280;59284;31.390;34.904;2022-12-07T02:02:35;95319.75;;;12.48;100.00
70745;BME280;59284;31.390;34.904;2022-12-07T02:05:08;95322.28;;;12.53;100.00
70745;BME280;59284;31.390;34.904;2022-12-07T02:07:38;95319.41;;;12.54;100.00
70745;BME280;59284;31.390;34.904;2022-12-07T02:10:16;95333.56;;;12.62;100.00
70745;BME280;59284;31.390;34.904;2022-12-07T02:12:54;95333.28;;;12.50;100.00
70745;BME280;59284;31.390;34.904;2022-12-07T02:15:33;95340.00;;;12.51;100.00
70745;BME280;59284;31.390;34.904;2022-12-07T02:18:35;95337.41;;;12.51;100.00
70745;BME280;59284;31.390;34.904;2022-12-07T02:21:13;95341.72;;;12.10;100.00
70745;BME280;59284;31.390;34.904;2022-12-07T02:24:13;95331.44;;;12.18;100.00
70745;BME280;59284;31.390;34.904;2022-12-07T02:27:09;95334.81;;;12.19;100.00
70745;BME280;59284;31.390;34.904;2022-12-07T02:29:54;95338.19;;;12.19;100.00
70745;BME280;59284;31.390;34.904;2022-12-07T02:33:00;95343.63;;;12.36;100.00
70745;BME280;59284;31.390;34.904;2022-12-07T02:38:18;95345.63;;;12.26;100.00
70745;BME280;59284;31.390;34.904;2022-12-07T02:40:53;95347.44;;;12.25;100.00
70745;BME280;59284;31.390;34.904;2022-12-07T02:43:45;95351.56;;;12.13;100.00
70745;BME280;59284;31.390;34.904;2022-12-07T02:46:38;95346.03;;;12.01;100.00
70745;BME280;59284;31.390;34.904;2022-12-07T02:49:08;95348.22;;;11.93;100.00
70745;BME280;59284;31.390;34.904;2022-12-07T02:51:54;95354.38;;;11.97;100.00
70745;BME280;59284;31.390;34.904;2022-12-07T02:54:21;95360.28;;;12.03;100.00
70745;BME280;59284;31.390;34.904;2022-12-07T03:00:08;95371.44;;;12.22;100.00
70745;BME280;59284;31.390;34.904;2022-12-07T03:06:42;95387.50;;;11.92;100.00
70745;BME280;59284;31.390;34.904;2022-12-07T03:09:22;95387.34;;;11.83;100.00
70745;BME280;59284;31.390;34.904;2022-12-07T03:12:12;95392.81;;;11.82;100.00
70745;BME280;59284;31.390;34.904;2022-12-07T03:14:49;95402.44;;;12.00;100.00
70745;BME280;59284;31.390;34.904;2022-12-07T03:17:26;95408.13;;;12.02;100.00
70745;BME280;59284;31.390;34.904;2022-12-07T03:20:00;95414.75;;;11.94;100.00
70745;BME280;59284;31.390;34.904;2022-12-07T03:22:32;95421.72;;;11.80;100.00
70745;BME280;59284;31.390;34.904;2022-12-07T03:25:06;95426.75;;;11.72;100.00
70745;BME280;59284;31.390;34.904;2022-12-07T03:27:53;95426.56;;;11.87;100.00
70745;BME280;59284;31.390;34.904;2022-12-07T03:31:12;95424.44;;;11.70;100.00
70745;BME280;59284;31.390;34.904;2022-12-07T03:33:42;95432.22;;;11.70;100.00
70745;BME280;59284;31.390;34.904;2022-12-07T03:36:25;95434.81;;;11.70;100.00
70745;BME280;59284;31.390;34.904;2022-12-07T03:39:43;95436.94;;;11.68;100.00
70745;BME280;59284;31.390;34.904;2022-12-07T03:41:49;95433.31;;;11.69;100.00
70745;BME280;59284;31.390;34.904;2022-12-07T03:44:20;95429.09;;;11.73;100.00
70745;BME280;59284;31.390;34.904;2022-12-07T03:47:26;95427.59;;;11.86;100.00
70745;BME280;59284;31.390;34.904;2022-12-07T03:50:21;95431.34;;;11.98;100.00
70745;BME280;59284;31.390;34.904;2022-12-07T03:53:22;95424.69;;;11.92;100.00
70745;BME280;59284;31.390;34.904;2022-12-07T03:55:52;95433.44;;;11.78;100.00
70745;BME280;59284;31.390;34.904;2022-12-07T03:58:23;95436.16;;;11.68;100.00
70745;BME280;59284;31.390;34.904;2022-12-07T04:00:54;95443.34;;;11.52;100.00
70745;BME280;59284;31.390;34.904;2022-12-07T04:03:27;95438.63;;;11.54;100.00
70745;BME280;59284;31.390;34.904;2022-12-07T04:05:56;95440.94;;;11.37;100.00
70745;BME280;59284;31.390;34.904;2022-12-07T04:08:25;95446.72;;;11.29;100.00
70745;BME280;59284;31.390;34.904;2022-12-07T04:10:52;95450.91;;;11.25;100.00
70745;BME280;59284;31.390;34.904;2022-12-07T04:13:18;95447.88;;;11.42;100.00
70745;BME280;59284;31.390;34.904;2022-12-07T04:15:46;95454.75;;;11.33;100.00
70745;BME280;59284;31.390;34.904;2022-12-07T04:18:17;95457.94;;;11.24;100.00
70745;BME280;59284;31.390;34.904;2022-12-07T04:20:46;95451.13;;;11.05;100.00
70745;BME280;59284;31.390;34.904;2022-12-07T04:23:20;95464.69;;;11.25;100.00
70745;BME280;59284;31.390;34.904;2022-12-07T04:25:51;95458.47;;;11.45;100.00
70745;BME280;59284;31.390;34.904;2022-12-07T04:28:25;95461.81;;;11.51;100.00
70745;BME280;59284;31.390;34.904;2022-12-07T04:30:52;95459.56;;;11.63;100.00
70745;BME280;59284;31.390;34.904;2022-12-07T04:33:19;95456.81;;;11.54;100.00
70745;BME280;59284;31.390;34.904;2022-12-07T04:35:47;95456.84;;;11.78;100.00
70745;BME280;59284;31.390;34.904;2022-12-07T04:38:15;95468.34;;;11.90;100.00
70745;BME280;59284;31.390;34.904;2022-12-07T04:40:44;95466.06;;;12.08;100.00
70745;BME280;59284;31.390;34.904;2022-12-07T04:43:12;95474.38;;;12.28;100.00
70745;BME280;59284;31.390;34.904;2022-12-07T04:45:45;95464.66;;;12.15;100.00
70745;BME280;59284;31.390;34.904;2022-12-07T04:48:13;95467.34;;;12.29;100.00
70745;BME280;59284;31.390;34.904;2022-12-07T04:50:41;95462.25;;;12.00;100.00
70745;BME280;59284;31.390;34.904;2022-12-07T04:53:10;95475.50;;;12.22;100.00
70745;BME280;59284;31.390;34.904;2022-12-07T04:55:38;95482.53;;;12.22;100.00
70745;BME280;59284;31.390;34.904;2022-12-07T04:58:08;95488.41;;;12.27;100.00
70745;BME280;59284;31.390;34.904;2022-12-07T05:00:42;95482.94;;;12.29;100.00
70745;BME280;59284;31.390;34.904;2022-12-07T05:03:10;95486.94;;;12.58;100.00
70745;BME280;59284;31.390;34.904;2022-12-07T05:05:41;95499.09;;;13.27;100.00
70745;BME280;59284;31.390;34.904;2022-12-07T05:08:09;95498.44;;;13.49;100.00
70745;BME280;59284;31.390;34.904;2022-12-07T05:10:37;95507.25;;;13.94;100.00
70745;BME280;59284;31.390;34.904;2022-12-07T05:13:06;95509.56;;;13.82;100.00
70745;BME280;59284;31.390;34.904;2022-12-07T05:15:34;95501.34;;;13.34;100.00
70745;BME280;59284;31.390;34.904;2022-12-07T05:18:02;95502.28;;;13.38;100.00
70745;BME280;59284;31.390;34.904;2022-12-07T05:20:31;95517.00;;;14.02;100.00
70745;BME280;59284;31.390;34.904;2022-12-07T05:23:02;95511.03;;;13.88;100.00
70745;BME280;59284;31.390;34.904;2022-12-07T05:25:29;95510.34;;;13.69;100.00
70745;BME280;59284;31.390;34.904;2022-12-07T05:27:59;95511.78;;;13.75;100.00
70745;BME280;59284;31.390;34.904;2022-12-07T05:30:32;95521.34;;;14.06;100.00
70745;BME280;59284;31.390;34.904;2022-12-07T05:32:58;95524.00;;;14.29;100.00
70745;BME280;59284;31.390;34.904;2022-12-07T05:35:26;95519.94;;;14.50;100.00
70745;BME280;59284;31.390;34.904;2022-12-07T05:37:56;95515.38;;;14.42;100.00
70745;BME280;59284;31.390;34.904;2022-12-07T05:40:31;95523.63;;;14.71;100.00
70745;BME280;59284;31.390;34.904;2022-12-07T05:42:59;95525.56;;;14.65;100.00
70745;BME280;59284;31.390;34.904;2022-12-07T05:45:27;95533.34;;;14.79;100.00
70745;BME280;59284;31.390;34.904;2022-12-07T05:47:57;95532.41;;;14.97;100.00
70745;BME280;59284;31.390;34.904;2022-12-07T05:50:26;95528.75;;;14.62;100.00
70745;BME280;59284;31.390;34.904;2022-12-07T05:52:54;95520.03;;;14.67;100.00
70745;BME280;59284;31.390;34.904;2022-12-07T05:55:23;95528.56;;;15.17;100.00
70745;BME280;59284;31.390;34.904;2022-12-07T05:57:53;95517.63;;;14.93;100.00
70745;BME280;59284;31.390;34.904;2022-12-07T06:00:38;95518.69;;;15.14;100.00
70745;BME280;59284;31.390;34.904;2022-12-07T06:03:13;95519.81;;;15.21;100.00
70745;BME280;59284;31.390;34.904;2022-12-07T06:05:40;95513.34;;;14.97;100.00
70745;BME280;59284;31.390;34.904;2022-12-07T06:08:11;95523.59;;;15.15;100.00
70745;BME280;59284;31.390;34.904;2022-12-07T06:10:41;95509.91;;;15.40;100.00
70745;BME280;59284;31.390;34.904;2022-12-07T06:13:10;95500.28;;;15.50;100.00
70745;BME280;59284;31.390;34.904;2022-12-07T06:15:41;95509.25;;;15.66;100.00
70745;BME280;59284;31.390;34.904;2022-12-07T06:18:10;95501.47;;;15.74;100.00
70745;BME280;59284;31.390;34.904;2022-12-07T06:20:41;95499.72;;;16.09;100.00
70745;BME280;59284;31.390;34.904;2022-12-07T06:23:09;95500.00;;;16.07;100.00
70745;BME280;59284;31.390;34.904;2022-12-07T06:25:36;95500.28;;;15.50;100.00
70745;BME280;59284;31.390;34.904;2022-12-07T06:28:07;95501.91;;;15.37;100.00
70745;BME280;59284;31.390;34.904;2022-12-07T06:30:34;95496.13;;;16.05;100.00
70745;BME280;59284;31.390;34.904;2022-12-07T06:33:06;95494.47;;;16.17;100.00
70745;BME280;59284;31.390;34.904;2022-12-07T06:35:36;95492.03;;;16.47;100.00
70745;BME280;59284;31.390;34.904;2022-12-07T06:38:04;95480.97;;;16.58;100.00
70745;BME280;59284;31.390;34.904;2022-12-07T06:40:33;95477.88;;;16.82;100.00
70745;BME280;59284;31.390;34.904;2022-12-07T06:43:03;95479.56;;;16.35;100.00
70745;BME280;59284;31.390;34.904;2022-12-07T06:45:31;95482.81;;;16.58;100.00
70745;BME280;59284;31.390;34.904;2022-12-07T06:48:00;95483.13;;;16.65;100.00
70745;BME280;59284;31.390;34.904;2022-12-07T06:50:28;95471.72;;;16.61;100.00
70745;BME280;59284;31.390;34.904;2022-12-07T06:52:57;95480.34;;;16.70;100.00
70745;BME280;59284;31.390;34.904;2022-12-07T06:55:24;95478.78;;;16.95;100.00
70745;BME280;59284;31.390;34.904;2022-12-07T06:57:51;95470.69;;;17.25;100.00
70745;BME280;59284;31.390;34.904;2022-12-07T07:00:19;95452.13;;;19.57;100.00
70745;BME280;59284;31.390;34.904;2022-12-07T07:02:46;95451.88;;;21.49;100.00
70745;BME280;59284;31.390;34.904;2022-12-07T07:05:13;95435.44;;;22.79;100.00
70745;BME280;59284;31.390;34.904;2022-12-07T07:07:41;95434.84;;;23.09;100.00
70745;BME280;59284;31.390;34.904;2022-12-07T07:10:09;95437.50;;;22.32;100.00
70745;BME280;59284;31.390;34.904;2022-12-07T07:12:36;95435.00;;;22.20;100.00
70745;BME280;59284;31.390;34.904;2022-12-07T07:15:03;95439.34;;;20.87;100.00
70745;BME280;59284;31.390;34.904;2022-12-07T07:17:30;95441.69;;;19.73;100.00
70745;BME280;59284;31.390;34.904;2022-12-07T07:19:57;95457.47;;;17.60;100.00
70745;BME280;59284;31.390;34.904;2022-12-07T07:22:24;95462.22;;;17.95;100.00
70745;BME280;59284;31.390;34.904;2022-12-07T07:24:51;95450.72;;;18.08;100.00
70745;BME280;59284;31.390;34.904;2022-12-07T07:27:18;95447.13;;;17.92;100.00
70745;BME280;59284;31.390;34.904;2022-12-07T07:29:44;95444.50;;;18.13;100.00
70745;BME280;59284;31.390;34.904;2022-12-07T07:32:10;95442.44;;;17.69;100.00
70745;BME280;59284;31.390;34.904;2022-12-07T07:34:37;95441.56;;;18.56;100.00
70745;BME280;59284;31.390;34.904;2022-12-07T07:37:04;95447.34;;;17.79;100.00
70745;BME280;59284;31.390;34.904;2022-12-07T07:39:30;95444.19;;;18.35;100.00
70745;BME280;59284;31.390;34.904;2022-12-07T07:41:56;95433.22;;;19.19;100.00
70745;BME280;59284;31.390;34.904;2022-12-07T07:44:23;95422.75;;;21.46;100.00
70745;BME280;59284;31.390;34.904;2022-12-07T07:46:48;95413.66;;;24.95;100.00
70745;BME280;59284;31.390;34.904;2022-12-07T07:49:14;95412.97;;;25.97;100.00
70745;BME280;59284;31.390;34.904;2022-12-07T07:51:40;95405.88;;;27.29;100.00
70745;BME280;59284;31.390;34.904;2022-12-07T07:54:07;95404.13;;;28.73;100.00
70745;BME280;59284;31.390;34.904;2022-12-07T07:56:34;95410.13;;;28.91;100.00
70745;BME280;59284;31.390;34.904;2022-12-07T07:59:00;95421.09;;;27.96;100.00
70745;BME280;59284;31.390;34.904;2022-12-07T08:01:27;95418.50;;;24.57;100.00
70745;BME280;59284;31.390;34.904;2022-12-07T08:03:54;95418.00;;;25.51;100.00
70745;BME280;59284;31.390;34.904;2022-12-07T08:06:21;95417.13;;;26.73;100.00
70745;BME280;59284;31.390;34.904;2022-12-07T08:08:47;95416.53;;;27.86;100.00
70745;BME280;59284;31.390;34.904;2022-12-07T08:11:14;95414.63;;;27.79;100.00
70745;BME280;59284;31.390;34.904;2022-12-07T08:13:41;95416.63;;;25.74;100.00
70745;BME280;59284;31.390;34.904;2022-12-07T08:16:09;95418.75;;;26.95;100.00
70745;BME280;59284;31.390;34.904;2022-12-07T08:18:37;95410.16;;;28.84;100.00
70745;BME280;59284;31.390;34.904;2022-12-07T08:21:06;95404.31;;;29.03;100.00
70745;BME280;59284;31.390;34.904;2022-12-07T08:23:33;95400.06;;;30.76;100.00
70745;BME280;59284;31.390;34.904;2022-12-07T08:26:05;95413.69;;;24.99;100.00
70745;BME280;59284;31.390;34.904;2022-12-07T08:28:32;95404.63;;;25.98;100.00
70745;BME280;59284;31.390;34.904;2022-12-07T08:31:02;95402.47;;;24.76;100.00
70745;BME280;59284;31.390;34.904;2022-12-07T08:33:31;95390.59;;;28.18;100.00
70745;BME280;59284;31.390;34.904;2022-12-07T08:36:09;95395.16;;;26.04;100.00
70745;BME280;59284;31.390;34.904;2022-12-07T08:38:38;95384.66;;;29.34;100.00
70745;BME280;59284;31.390;34.904;2022-12-07T08:41:07;95389.69;;;25.76;100.00
70745;BME280;59284;31.390;34.904;2022-12-07T08:43:35;95386.25;;;24.84;100.00
70745;BME280;59284;31.390;34.904;2022-12-07T08:46:09;95382.69;;;27.44;100.00
70745;BME280;59284;31.390;34.904;2022-12-07T08:48:46;95376.94;;;27.31;100.00
70745;BME280;59284;31.390;34.904;2022-12-07T08:51:16;95372.22;;;26.51;100.00
70745;BME280;59284;31.390;34.904;2022-12-07T08:53:45;95364.94;;;30.03;100.00
70745;BME280;59284;31.390;34.904;2022-12-07T08:56:12;95370.69;;;29.60;100.00
70745;BME280;59284;31.390;34.904;2022-12-07T08:58:40;95368.53;;;25.43;100.00
70745;BME280;59284;31.390;34.904;2022-12-07T09:01:09;95368.19;;;27.76;100.00
70745;BME280;59284;31.390;34.904;2022-12-07T09:03:37;95362.69;;;28.33;100.00
70745;BME280;59284;31.390;34.904;2022-12-07T09:06:04;95369.69;;;27.10;100.00
70745;BME280;59284;31.390;34.904;2022-12-07T09:08:36;95372.25;;;25.31;100.00
70745;BME280;59284;31.390;34.904;2022-12-07T09:11:06;95363.56;;;24.90;100.00
70745;BME280;59284;31.390;34.904;2022-12-07T09:13:34;95353.03;;;29.26;100.00
70745;BME280;59284;31.390;34.904;2022-12-07T09:16:02;95349.56;;;30.10;100.00
70745;BME280;59284;31.390;34.904;2022-12-07T09:18:29;95344.56;;;30.16;100.00
70745;BME280;59284;31.390;34.904;2022-12-07T09:20:57;95350.81;;;30.66;100.00
70745;BME280;59284;31.390;34.904;2022-12-07T09:23:23;95353.34;;;27.08;100.00
70745;BME280;59284;31.390;34.904;2022-12-07T09:25:51;95346.13;;;27.55;100.00
70745;BME280;59284;31.390;34.904;2022-12-07T09:28:19;95345.09;;;31.41;100.00
70745;BME280;59284;31.390;34.904;2022-12-07T09:30:49;95351.44;;;27.27;100.00
70745;BME280;59284;31.390;34.904;2022-12-07T09:33:23;95346.09;;;27.27;100.00
70745;BME280;59284;31.390;34.904;2022-12-07T09:35:51;95327.91;;;24.88;100.00
70745;BME280;59284;31.390;34.904;2022-12-07T09:38:19;95329.41;;;24.89;100.00
70745;BME280;59284;31.390;34.904;2022-12-07T09:40:46;95333.50;;;24.42;100.00
70745;BME280;59284;31.390;34.904;2022-12-07T09:43:23;95318.47;;;29.01;100.00
70745;BME280;59284;31.390;34.904;2022-12-07T09:45:54;95317.06;;;28.86;100.00
70745;BME280;59284;31.390;34.904;2022-12-07T09:48:36;95308.28;;;31.68;100.00
70745;BME280;59284;31.390;34.904;2022-12-07T09:51:18;95300.75;;;32.02;100.00
70745;BME280;59284;31.390;34.904;2022-12-07T09:53:47;95304.91;;;30.37;100.00
70745;BME280;59284;31.390;34.904;2022-12-07T09:56:16;95299.38;;;29.88;100.00
70745;BME280;59284;31.390;34.904;2022-12-07T09:58:47;95294.03;;;33.34;100.00
70745;BME280;59284;31.390;34.904;2022-12-07T10:01:15;95284.38;;;32.52;100.00
70745;BME280;59284;31.390;34.904;2022-12-07T10:03:51;95291.69;;;27.31;100.00
70745;BME280;59284;31.390;34.904;2022-12-07T10:06:19;95296.91;;;28.74;100.00
70745;BME280;59284;31.390;34.904;2022-12-07T10:08:48;95292.19;;;30.72;100.00
70745;BME280;59284;31.390;34.904;2022-12-07T10:11:17;95282.41;;;35.92;100.00
70745;BME280;59284;31.390;34.904;2022-12-07T10:13:48;95270.63;;;35.43;100.00
70745;BME280;59284;31.390;34.904;2022-12-07T10:16:39;95267.13;;;31.55;100.00
70745;BME280;59284;31.390;34.904;2022-12-07T10:19:33;95253.34;;;34.93;100.00
70745;BME280;59284;31.390;34.904;2022-12-07T10:22:13;95256.72;;;28.33;100.00
70745;BME280;59284;31.390;34.904;2022-12-07T10:24:43;95257.72;;;31.23;100.00
70745;BME280;59284;31.390;34.904;2022-12-07T10:27:29;95247.91;;;33.03;100.00
70745;BME280;59284;31.390;34.904;2022-12-07T10:29:59;95247.81;;;33.67;100.00
70745;BME280;59284;31.390;34.904;2022-12-07T10:32:36;95244.09;;;31.14;100.00
70745;BME280;59284;31.390;34.904;2022-12-07T10:35:25;95246.41;;;26.46;100.00
70745;BME280;59284;31.390;34.904;2022-12-07T10:37:54;95244.06;;;31.38;100.00
70745;BME280;59284;31.390;34.904;2022-12-07T10:43:17;95230.47;;;29.99;100.00
70745;BME280;59284;31.390;34.904;2022-12-07T10:48:50;95232.75;;;26.90;100.00
70745;BME280;59284;31.390;34.904;2022-12-07T10:52:16;95229.47;;;27.94;100.00
70745;BME280;59284;31.390;34.904;2022-12-07T10:54:29;95223.22;;;26.65;100.00
70745;BME280;59284;31.390;34.904;2022-12-07T10:57:16;95239.13;;;24.05;100.00
70745;BME280;59284;31.390;34.904;2022-12-07T11:16:00;95218.25;;;25.38;100.00
70745;BME280;59284;31.390;34.904;2022-12-07T11:18:51;95213.34;;;24.79;100.00
70745;BME280;59284;31.390;34.904;2022-12-07T11:24:53;95214.34;;;24.23;100.00
70745;BME280;59284;31.390;34.904;2022-12-07T11:27:44;95220.28;;;22.94;100.00
70745;BME280;59284;31.390;34.904;2022-12-07T11:30:23;95218.28;;;23.70;100.00
70745;BME280;59284;31.390;34.904;2022-12-07T11:36:09;95215.38;;;22.48;100.00
70745;BME280;59284;31.390;34.904;2022-12-07T11:42:12;95226.78;;;23.27;100.00
70745;BME280;59284;31.390;34.904;2022-12-07T11:44:45;95227.81;;;22.92;100.00
70745;BME280;59284;31.390;34.904;2022-12-07T11:47:32;95235.53;;;22.78;100.00
70745;BME280;59284;31.390;34.904;2022-12-07T11:50:19;95219.25;;;22.76;100.00
70745;BME280;59284;31.390;34.904;2022-12-07T11:55:30;95216.66;;;23.92;100.00
70745;BME280;59284;31.390;34.904;2022-12-07T11:58:05;95212.59;;;26.89;100.00
70745;BME280;59284;31.390;34.904;2022-12-07T12:00:39;95215.44;;;23.86;100.00
70745;BME280;59284;31.390;34.904;2022-12-07T12:03:38;95224.44;;;24.95;100.00
70745;BME280;59284;31.390;34.904;2022-12-07T12:06:06;95228.41;;;25.19;100.00
70745;BME280;59284;31.390;34.904;2022-12-07T12:08:52;95227.72;;;24.78;100.00
70745;BME280;59284;31.390;34.904;2022-12-07T12:11:33;95234.69;;;24.12;100.00
70745;BME280;59284;31.390;34.904;2022-12-07T12:17:22;95220.72;;;25.71;100.00
70745;BME280;59284;31.390;34.904;2022-12-07T12:22:48;95227.94;;;21.90;100.00
70745;BME280;59284;31.390;34.904;2022-12-07T12:25:27;95229.91;;;21.39;100.00
70745;BME280;59284;31.390;34.904;2022-12-07T12:27:58;95231.72;;;22.30;100.00
70745;BME280;59284;31.390;34.904;2022-12-07T12:30:33;95219.03;;;23.11;100.00
70745;BME280;59284;31.390;34.904;2022-12-07T12:33:27;95219.16;;;23.78;100.00
70745;BME280;59284;31.390;34.904;2022-12-07T12:38:51;95208.47;;;28.10;100.00
70745;BME280;59284;31.390;34.904;2022-12-07T12:41:58;95210.03;;;31.54;100.00
70745;BME280;59284;31.390;34.904;2022-12-07T12:47:38;95213.66;;;28.86;100.00
70745;BME280;59284;31.390;34.904;2022-12-07T12:50:22;95210.94;;;28.90;100.00
70745;BME280;59284;31.390;34.904;2022-12-07T12:53:04;95214.09;;;26.37;100.00
70745;BME280;59284;31.390;34.904;2022-12-07T12:56:19;95225.09;;;26.36;100.00
70745;BME280;59284;31.390;34.904;2022-12-07T12:58:48;95213.13;;;28.54;100.00
70745;BME280;59284;31.390;34.904;2022-12-07T13:01:39;95216.03;;;27.00;100.00
70745;BME280;59284;31.390;34.904;2022-12-07T13:04:48;95210.47;;;28.50;100.00
70745;BME280;59284;31.390;34.904;2022-12-07T13:07:56;95214.47;;;27.03;100.00
70745;BME280;59284;31.390;34.904;2022-12-07T13:10:38;95209.25;;;27.97;100.00
70745;BME280;59284;31.390;34.904;2022-12-07T13:16:55;95205.72;;;27.13;100.00
70745;BME280;59284;31.390;34.904;2022-12-07T13:18:52;95194.94;;;28.38;100.00
70745;BME280;59284;31.390;34.904;2022-12-07T13:23:59;95202.38;;;24.84;100.00
70745;BME280;59284;31.390;34.904;2022-12-07T13:29:09;95213.78;;;25.49;100.00
70745;BME280;59284;31.390;34.904;2022-12-07T13:31:40;95218.13;;;25.17;100.00
70745;BME280;59284;31.390;34.904;2022-12-07T13:34:36;95197.94;;;27.75;100.00
70745;BME280;59284;31.390;34.904;2022-12-07T13:37:24;95200.69;;;25.16;100.00
70745;BME280;59284;31.390;34.904;2022-12-07T13:40:01;95190.50;;;26.64;100.00
70745;BME280;59284;31.390;34.904;2022-12-07T13:42:43;95202.69;;;26.37;100.00
70745;BME280;59284;31.390;34.904;2022-12-07T13:45:26;95216.03;;;24.05;100.00
70745;BME280;59284;31.390;34.904;2022-12-07T13:48:31;95232.94;;;21.22;100.00
70745;BME280;59284;31.390;34.904;2022-12-07T13:54:21;95222.19;;;20.49;100.00
70745;BME280;59284;31.390;34.904;2022-12-07T14:00:37;95221.66;;;22.40;100.00
70745;BME280;59284;31.390;34.904;2022-12-07T14:05:41;95237.28;;;21.14;100.00
70745;BME280;59284;31.390;34.904;2022-12-07T14:11:04;95251.50;;;20.94;100.00
70745;BME280;59284;31.390;34.904;2022-12-07T14:16:05;95247.97;;;19.84;100.00
70745;BME280;59284;31.390;34.904;2022-12-07T14:18:49;95235.81;;;19.52;100.00
70745;BME280;59284;31.390;34.904;2022-12-07T14:21:21;95242.66;;;18.92;100.00
70745;BME280;59284;31.390;34.904;2022-12-07T14:24:12;95246.47;;;18.47;100.00
70745;BME280;59284;31.390;34.904;2022-12-07T14:26:42;95257.97;;;17.56;100.00
70745;BME280;59284;31.390;34.904;2022-12-07T14:29:31;95261.09;;;17.20;100.00
70745;BME280;59284;31.390;34.904;2022-12-07T14:32:24;95267.25;;;16.95;100.00
70745;BME280;59284;31.390;34.904;2022-12-07T14:37:29;95285.16;;;16.93;100.00